sensor_id;sensor_type;location;lat;lon;timestamp;temperature;humidity
3035;DHT22;1527;48.836;9.172;2022-10-16T00:00:40;18.30;99.90
3035;DHT22;1527;48.836;9.172;2022-10-16T00:03:10;18.30;99.90
3035;DHT22;1527;48.836;9.172;2022-10-16T00:05:42;18.30;99.90
3035;DHT22;1527;48.836;9.172;2022-10-16T00:08:12;18.20;99.90
3035;DHT22;1527;48.836;9.172;2022-10-16T00:10:41;18.30;99.90
3035;DHT22;1527;48.836;9.172;2022-10-16T00:13:11;18.30;99.90
3035;DHT22;1527;48.836;9.172;2022-10-16T00:15:40;18.20;99.90
3035;DHT22;1527;48.836;9.172;2022-10-16T00:18:11;18.30;99.90
3035;DHT22;1527;48.836;9.172;2022-10-16T00:20:42;18.20;99.90
3035;DHT22;1527;48.836;9.172;2022-10-16T00:23:29;18.10;99.90
3035;DHT22;1527;48.836;9.172;2022-10-16T00:26:02;18.10;99.90
3035;DHT22;1527;48.836;9.172;2022-10-16T00:28:37;18.10;99.90
3035;DHT22;1527;48.836;9.172;2022-10-16T00:31:08;18.00;99.90
3035;DHT22;1527;48.836;9.172;2022-10-16T00:33:39;18.00;99.90
3035;DHT22;1527;48.836;9.172;2022-10-16T00:36:11;17.90;99.90
3035;DHT22;1527;48.836;9.172;2022-10-16T00:38:41;17.90;99.90
3035;DHT22;1527;48.836;9.172;2022-10-16T00:41:13;17.90;99.90
3035;DHT22;1527;48.836;9.172;2022-10-16T00:43:45;17.90;99.90
3035;DHT22;1527;48.836;9.172;2022-10-16T00:46:18;17.90;99.90
3035;DHT22;1527;48.836;9.172;2022-10-16T00:48:53;17.80;99.90
3035;DHT22;1527;48.836;9.172;2022-10-16T00:51:28;17.80;99.90
3035;DHT22;1527;48.836;9.172;2022-10-16T00:54:00;17.70;99.90
3035;DHT22;1527;48.836;9.172;2022-10-16T00:56:30;17.70;99.90
3035;DHT22;1527;48.836;9.172;2022-10-16T00:59:02;17.70;99.90
3035;DHT22;1527;48.836;9.172;2022-10-16T01:01:32;17.70;99.90
3035;DHT22;1527;48.836;9.172;2022-10-16T01:04:01;17.60;99.90
3035;DHT22;1527;48.836;9.172;2022-10-16T01:06:35;17.60;99.90
3035;DHT22;1527;48.836;9.172;2022-10-16T01:09:13;17.60;99.90
3035;DHT22;1527;48.836;9.172;2022-10-16T01:11:50;17.60;99.90
3035;DHT22;1527;48.836;9.172;2022-10-16T01:14:29;17.60;99.90
3035;DHT22;1527;48.836;9.172;2022-10-16T01:17:06;18.10;99.90
3035;DHT22;1527;48.836;9.172;2022-10-16T01:19:51;17.50;99.90
3035;DHT22;1527;48.836;9.172;2022-10-16T01:22:39;17.50;99.90
3035;DHT22;1527;48.836;9.172;2022-10-16T01:25:24;17.50;99.90
3035;DHT22;1527;48.836;9.172;2022-10-16T01:27:59;17.50;99.90
3035;DHT22;1527;48.836;9.172;2022-10-16T01:30:32;17.60;99.90
3035;DHT22;1527;48.836;9.172;2022-10-16T01:33:05;17.50;99.90
3035;DHT22;1527;48.836;9.172;2022-10-16T01:35:42;17.50;99.90
3035;DHT22;1527;48.836;9.172;2022-10-16T01:38:16;17.50;99.90
3035;DHT22;1527;48.836;9.172;2022-10-16T01:40:52;17.50;99.90
3035;DHT22;1527;48.836;9.172;2022-10-16T01:43:27;17.50;99.90
3035;DHT22;1527;48.836;9.172;2022-10-16T01:45:59;17.50;99.90
3035;DHT22;1527;48.836;9.172;2022-10-16T01:48:29;17.50;99.90
3035;DHT22;1527;48.836;9.172;2022-10-16T01:51:03;17.50;99.90
3035;DHT22;1527;48.836;9.172;2022-10-16T01:53:35;17.50;99.90
3035;DHT22;1527;48.836;9.172;2022-10-16T01:56:10;17.60;99.90
3035;DHT22;1527;48.836;9.172;2022-10-16T01:58:49;17.60;99.90
3035;DHT22;1527;48.836;9.172;2022-10-16T02:01:23;17.50;99.90
3035;DHT22;1527;48.836;9.172;2022-10-16T02:03:57;17.60;99.90
3035;DHT22;1527;48.836;9.172;2022-10-16T02:06:30;17.50;99.90
3035;DHT22;1527;48.836;9.172;2022-10-16T02:08:59;17.50;99.90
3035;DHT22;1527;48.836;9.172;2022-10-16T02:11:28;17.50;99.90
3035;DHT22;1527;48.836;9.172;2022-10-16T02:14:02;17.40;99.90
3035;DHT22;1527;48.836;9.172;2022-10-16T02:16:39;17.40;99.90
3035;DHT22;1527;48.836;9.172;2022-10-16T02:19:13;17.40;99.90
3035;DHT22;1527;48.836;9.172;2022-10-16T02:21:45;17.50;99.90
3035;DHT22;1527;48.836;9.172;2022-10-16T02:24:24;17.50;99.90
3035;DHT22;1527;48.836;9.172;2022-10-16T02:27:01;17.50;99.90
3035;DHT22;1527;48.836;9.172;2022-10-16T02:29:38;17.50;99.90
3035;DHT22;1527;48.836;9.172;2022-10-16T02:32:10;17.50;99.90
3035;DHT22;1527;48.836;9.172;2022-10-16T02:34:41;17.50;99.90
3035;DHT22;1527;48.836;9.172;2022-10-16T02:37:11;17.50;99.90
3035;DHT22;1527;48.836;9.172;2022-10-16T02:39:41;17.50;99.90
3035;DHT22;1527;48.836;9.172;2022-10-16T02:42:11;17.50;99.90
3035;DHT22;1527;48.836;9.172;2022-10-16T02:44:42;17.50;99.90
3035;DHT22;1527;48.836;9.172;2022-10-16T02:47:11;17.50;99.90
3035;DHT22;1527;48.836;9.172;2022-10-16T02:49:40;17.50;99.90
3035;DHT22;1527;48.836;9.172;2022-10-16T02:52:10;17.50;99.90
3035;DHT22;1527;48.836;9.172;2022-10-16T02:54:39;17.60;99.90
3035;DHT22;1527;48.836;9.172;2022-10-16T02:57:08;17.50;99.90
3035;DHT22;1527;48.836;9.172;2022-10-16T02:59:37;17.50;99.90
3035;DHT22;1527;48.836;9.172;2022-10-16T03:02:08;17.50;99.90
3035;DHT22;1527;48.836;9.172;2022-10-16T03:04:49;17.50;99.90
3035;DHT22;1527;48.836;9.172;2022-10-16T03:07:18;17.50;99.90
3035;DHT22;1527;48.836;9.172;2022-10-16T03:09:47;17.50;99.90
3035;DHT22;1527;48.836;9.172;2022-10-16T03:12:42;17.50;99.90
3035;DHT22;1527;48.836;9.172;2022-10-16T03:15:11;17.50;99.90
3035;DHT22;1527;48.836;9.172;2022-10-16T03:17:42;17.40;99.90
3035;DHT22;1527;48.836;9.172;2022-10-16T03:20:11;17.40;99.90
3035;DHT22;1527;48.836;9.172;2022-10-16T03:22:40;17.40;99.90
3035;DHT22;1527;48.836;9.172;2022-10-16T03:25:09;17.40;99.90
3035;DHT22;1527;48.836;9.172;2022-10-16T03:27:38;17.40;99.90
3035;DHT22;1527;48.836;9.172;2022-10-16T03:30:08;17.40;99.90
3035;DHT22;1527;48.836;9.172;2022-10-16T03:32:38;17.40;99.90
3035;DHT22;1527;48.836;9.172;2022-10-16T03:35:12;17.40;99.90
3035;DHT22;1527;48.836;9.172;2022-10-16T03:37:41;17.40;99.90
3035;DHT22;1527;48.836;9.172;2022-10-16T03:40:11;17.40;99.90
3035;DHT22;1527;48.836;9.172;2022-10-16T03:42:41;17.30;99.90
3035;DHT22;1527;48.836;9.172;2022-10-16T03:45:33;17.30;99.90
3035;DHT22;1527;48.836;9.172;2022-10-16T03:48:02;17.30;99.90
3035;DHT22;1527;48.836;9.172;2022-10-16T03:50:33;17.30;99.90
3035;DHT22;1527;48.836;9.172;2022-10-16T03:53:02;17.30;99.90
3035;DHT22;1527;48.836;9.172;2022-10-16T03:55:31;17.30;99.90
3035;DHT22;1527;48.836;9.172;2022-10-16T03:58:01;17.30;99.90
3035;DHT22;1527;48.836;9.172;2022-10-16T04:00:30;17.30;99.90
3035;DHT22;1527;48.836;9.172;2022-10-16T04:02:59;17.30;99.90
3035;DHT22;1527;48.836;9.172;2022-10-16T04:05:28;17.30;99.90
3035;DHT22;1527;48.836;9.172;2022-10-16T04:07:58;17.20;99.90
3035;DHT22;1527;48.836;9.172;2022-10-16T04:10:27;17.20;99.90
3035;DHT22;1527;48.836;9.172;2022-10-16T04:12:56;17.20;99.90
3035;DHT22;1527;48.836;9.172;2022-10-16T04:15:25;17.20;99.90
3035;DHT22;1527;48.836;9.172;2022-10-16T04:17:54;17.20;99.90
3035;DHT22;1527;48.836;9.172;2022-10-16T04:20:23;17.20;99.90
3035;DHT22;1527;48.836;9.172;2022-10-16T04:22:54;17.20;99.90
3035;DHT22;1527;48.836;9.172;2022-10-16T04:25:24;17.20;99.90
3035;DHT22;1527;48.836;9.172;2022-10-16T04:27:53;17.20;99.90
3035;DHT22;1527;48.836;9.172;2022-10-16T04:30:22;17.20;99.90
3035;DHT22;1527;48.836;9.172;2022-10-16T04:32:52;17.10;99.90
3035;DHT22;1527;48.836;9.172;2022-10-16T04:35:22;17.10;99.90
3035;DHT22;1527;48.836;9.172;2022-10-16T04:37:51;17.10;99.90
3035;DHT22;1527;48.836;9.172;2022-10-16T04:40:45;17.10;99.90
3035;DHT22;1527;48.836;9.172;2022-10-16T04:43:14;17.10;99.90
3035;DHT22;1527;48.836;9.172;2022-10-16T04:45:43;17.10;99.90
3035;DHT22;1527;48.836;9.172;2022-10-16T04:48:12;17.10;99.90
3035;DHT22;1527;48.836;9.172;2022-10-16T04:50:41;17.20;99.90
3035;DHT22;1527;48.836;9.172;2022-10-16T04:53:10;17.10;99.90
3035;DHT22;1527;48.836;9.172;2022-10-16T04:55:40;17.10;99.90
3035;DHT22;1527;48.836;9.172;2022-10-16T04:58:11;17.10;99.90
3035;DHT22;1527;48.836;9.172;2022-10-16T05:00:40;17.10;99.90
3035;DHT22;1527;48.836;9.172;2022-10-16T05:03:18;17.10;99.90
3035;DHT22;1527;48.836;9.172;2022-10-16T05:05:47;17.10;99.90
3035;DHT22;1527;48.836;9.172;2022-10-16T05:08:17;17.10;99.90
3035;DHT22;1527;48.836;9.172;2022-10-16T05:10:46;17.10;99.90
3035;DHT22;1527;48.836;9.172;2022-10-16T05:13:16;17.10;99.90
3035;DHT22;1527;48.836;9.172;2022-10-16T05:15:47;17.10;99.90
3035;DHT22;1527;48.836;9.172;2022-10-16T05:18:17;17.10;99.90
3035;DHT22;1527;48.836;9.172;2022-10-16T05:20:46;17.10;99.90
3035;DHT22;1527;48.836;9.172;2022-10-16T05:23:15;17.10;99.90
3035;DHT22;1527;48.836;9.172;2022-10-16T05:25:52;17.10;99.90
3035;DHT22;1527;48.836;9.172;2022-10-16T05:28:23;17.10;99.90
3035;DHT22;1527;48.836;9.172;2022-10-16T05:30:53;17.10;99.90
3035;DHT22;1527;48.836;9.172;2022-10-16T05:33:24;17.10;99.90
3035;DHT22;1527;48.836;9.172;2022-10-16T05:35:53;17.10;99.90
3035;DHT22;1527;48.836;9.172;2022-10-16T05:38:23;17.10;99.90
3035;DHT22;1527;48.836;9.172;2022-10-16T05:40:52;17.10;99.90
3035;DHT22;1527;48.836;9.172;2022-10-16T05:43:23;17.00;99.90
3035;DHT22;1527;48.836;9.172;2022-10-16T05:45:55;17.10;99.90
3035;DHT22;1527;48.836;9.172;2022-10-16T05:48:25;17.00;99.90
3035;DHT22;1527;48.836;9.172;2022-10-16T05:51:00;17.10;99.90
3035;DHT22;1527;48.836;9.172;2022-10-16T05:53:32;17.00;99.90
3035;DHT22;1527;48.836;9.172;2022-10-16T05:56:03;17.00;99.90
3035;DHT22;1527;48.836;9.172;2022-10-16T05:58:49;17.00;99.90
3035;DHT22;1527;48.836;9.172;2022-10-16T06:01:19;17.00;99.90
3035;DHT22;1527;48.836;9.172;2022-10-16T06:03:52;16.90;99.90
3035;DHT22;1527;48.836;9.172;2022-10-16T06:06:22;17.00;99.90
3035;DHT22;1527;48.836;9.172;2022-10-16T06:08:54;17.00;99.90
3035;DHT22;1527;48.836;9.172;2022-10-16T06:11:25;17.00;99.90
3035;DHT22;1527;48.836;9.172;2022-10-16T06:13:58;17.00;99.90
3035;DHT22;1527;48.836;9.172;2022-10-16T06:16:38;17.00;99.90
3035;DHT22;1527;48.836;9.172;2022-10-16T06:19:07;17.00;99.90
3035;DHT22;1527;48.836;9.172;2022-10-16T06:21:37;17.00;99.90
3035;DHT22;1527;48.836;9.172;2022-10-16T06:24:06;17.00;99.90
3035;DHT22;1527;48.836;9.172;2022-10-16T06:26:35;17.00;99.90
3035;DHT22;1527;48.836;9.172;2022-10-16T06:29:05;17.00;99.90
3035;DHT22;1527;48.836;9.172;2022-10-16T06:31:34;17.00;99.90
3035;DHT22;1527;48.836;9.172;2022-10-16T06:34:03;17.00;99.90
3035;DHT22;1527;48.836;9.172;2022-10-16T06:36:36;17.00;99.90
3035;DHT22;1527;48.836;9.172;2022-10-16T06:39:06;17.00;99.90
3035;DHT22;1527;48.836;9.172;2022-10-16T06:41:35;17.00;99.90
3035;DHT22;1527;48.836;9.172;2022-10-16T06:44:16;17.10;99.90
3035;DHT22;1527;48.836;9.172;2022-10-16T06:46:45;17.10;99.90
3035;DHT22;1527;48.836;9.172;2022-10-16T06:49:14;17.10;99.90
3035;DHT22;1527;48.836;9.172;2022-10-16T06:51:49;17.10;99.90
3035;DHT22;1527;48.836;9.172;2022-10-16T06:54:18;17.10;99.90
3035;DHT22;1527;48.836;9.172;2022-10-16T06:56:47;17.20;99.90
3035;DHT22;1527;48.836;9.172;2022-10-16T06:59:17;17.20;99.90
3035;DHT22;1527;48.836;9.172;2022-10-16T07:01:47;17.30;99.90
3035;DHT22;1527;48.836;9.172;2022-10-16T07:04:16;17.30;99.90
3035;DHT22;1527;48.836;9.172;2022-10-16T07:06:46;17.30;99.90
3035;DHT22;1527;48.836;9.172;2022-10-16T07:09:15;17.30;99.90
3035;DHT22;1527;48.836;9.172;2022-10-16T07:11:45;17.40;99.90
3035;DHT22;1527;48.836;9.172;2022-10-16T07:14:18;17.40;99.90
3035;DHT22;1527;48.836;9.172;2022-10-16T07:16:48;17.50;99.90
3035;DHT22;1527;48.836;9.172;2022-10-16T07:19:17;17.50;99.90
3035;DHT22;1527;48.836;9.172;2022-10-16T07:21:47;17.50;99.90
3035;DHT22;1527;48.836;9.172;2022-10-16T07:24:16;17.60;99.90
3035;DHT22;1527;48.836;9.172;2022-10-16T07:26:46;17.60;99.90
3035;DHT22;1527;48.836;9.172;2022-10-16T07:29:18;17.60;99.90
3035;DHT22;1527;48.836;9.172;2022-10-16T07:31:49;17.70;99.90
3035;DHT22;1527;48.836;9.172;2022-10-16T07:34:19;17.70;99.90
3035;DHT22;1527;48.836;9.172;2022-10-16T07:36:50;17.70;99.90
3035;DHT22;1527;48.836;9.172;2022-10-16T07:39:19;17.70;99.90
3035;DHT22;1527;48.836;9.172;2022-10-16T07:41:48;17.70;99.90
3035;DHT22;1527;48.836;9.172;2022-10-16T07:44:18;17.80;99.90
3035;DHT22;1527;48.836;9.172;2022-10-16T07:46:47;17.80;99.90
3035;DHT22;1527;48.836;9.172;2022-10-16T07:49:17;17.80;99.90
3035;DHT22;1527;48.836;9.172;2022-10-16T07:51:46;17.80;99.90
3035;DHT22;1527;48.836;9.172;2022-10-16T07:54:15;17.80;99.90
3035;DHT22;1527;48.836;9.172;2022-10-16T07:56:44;17.70;99.90
3035;DHT22;1527;48.836;9.172;2022-10-16T07:59:14;17.80;99.90
3035;DHT22;1527;48.836;9.172;2022-10-16T08:01:44;17.80;99.90
3035;DHT22;1527;48.836;9.172;2022-10-16T08:04:13;17.80;99.90
3035;DHT22;1527;48.836;9.172;2022-10-16T08:06:42;17.90;99.90
3035;DHT22;1527;48.836;9.172;2022-10-16T08:09:11;17.90;99.90
3035;DHT22;1527;48.836;9.172;2022-10-16T08:11:40;17.90;99.90
3035;DHT22;1527;48.836;9.172;2022-10-16T08:14:09;17.90;99.90
3035;DHT22;1527;48.836;9.172;2022-10-16T08:16:39;18.00;99.90
3035;DHT22;1527;48.836;9.172;2022-10-16T08:19:09;18.00;99.90
3035;DHT22;1527;48.836;9.172;2022-10-16T08:21:38;18.00;99.90
3035;DHT22;1527;48.836;9.172;2022-10-16T08:24:07;18.10;99.90
3035;DHT22;1527;48.836;9.172;2022-10-16T08:26:37;18.10;99.90
3035;DHT22;1527;48.836;9.172;2022-10-16T08:29:06;18.10;99.90
3035;DHT22;1527;48.836;9.172;2022-10-16T08:31:36;18.20;99.90
3035;DHT22;1527;48.836;9.172;2022-10-16T08:34:05;18.20;99.90
3035;DHT22;1527;48.836;9.172;2022-10-16T08:36:35;18.30;99.90
3035;DHT22;1527;48.836;9.172;2022-10-16T08:39:05;18.40;99.90
3035;DHT22;1527;48.836;9.172;2022-10-16T08:41:57;18.40;99.90
3035;DHT22;1527;48.836;9.172;2022-10-16T08:45:05;18.50;99.90
3035;DHT22;1527;48.836;9.172;2022-10-16T08:47:48;18.60;99.90
3035;DHT22;1527;48.836;9.172;2022-10-16T08:50:23;18.70;99.90
3035;DHT22;1527;48.836;9.172;2022-10-16T08:52:56;18.80;99.90
3035;DHT22;1527;48.836;9.172;2022-10-16T08:55:32;18.90;99.90
3035;DHT22;1527;48.836;9.172;2022-10-16T08:58:11;19.00;99.90
3035;DHT22;1527;48.836;9.172;2022-10-16T09:00:42;19.10;99.90
3035;DHT22;1527;48.836;9.172;2022-10-16T09:03:21;19.10;99.90
3035;DHT22;1527;48.836;9.172;2022-10-16T09:06:17;19.20;99.90
3035;DHT22;1527;48.836;9.172;2022-10-16T09:09:07;19.30;99.90
3035;DHT22;1527;48.836;9.172;2022-10-16T09:11:50;19.30;99.90
3035;DHT22;1527;48.836;9.172;2022-10-16T09:14:44;19.40;99.90
3035;DHT22;1527;48.836;9.172;2022-10-16T09:17:39;19.40;99.90
3035;DHT22;1527;48.836;9.172;2022-10-16T09:20:19;19.50;99.90
3035;DHT22;1527;48.836;9.172;2022-10-16T09:22:54;19.50;99.90
3035;DHT22;1527;48.836;9.172;2022-10-16T09:25:30;19.50;99.90
3035;DHT22;1527;48.836;9.172;2022-10-16T09:28:01;19.60;99.90
3035;DHT22;1527;48.836;9.172;2022-10-16T09:30:30;19.70;99.90
3035;DHT22;1527;48.836;9.172;2022-10-16T09:32:59;19.60;99.90
3035;DHT22;1527;48.836;9.172;2022-10-16T09:35:32;19.70;99.90
3035;DHT22;1527;48.836;9.172;2022-10-16T09:38:07;19.80;99.90
3035;DHT22;1527;48.836;9.172;2022-10-16T09:40:41;19.70;99.90
3035;DHT22;1527;48.836;9.172;2022-10-16T09:43:20;19.70;99.90
3035;DHT22;1527;48.836;9.172;2022-10-16T09:45:59;19.70;99.90
3035;DHT22;1527;48.836;9.172;2022-10-16T09:48:33;19.70;99.90
3035;DHT22;1527;48.836;9.172;2022-10-16T09:51:17;19.70;99.90
3035;DHT22;1527;48.836;9.172;2022-10-16T09:54:01;19.80;99.90
3035;DHT22;1527;48.836;9.172;2022-10-16T09:56:44;19.80;99.90
3035;DHT22;1527;48.836;9.172;2022-10-16T10:02:50;20.00;99.90
3035;DHT22;1527;48.836;9.172;2022-10-16T10:05:21;20.00;99.90
3035;DHT22;1527;48.836;9.172;2022-10-16T10:07:55;20.00;99.90
3035;DHT22;1527;48.836;9.172;2022-10-16T10:10:31;20.10;99.90
3035;DHT22;1527;48.836;9.172;2022-10-16T10:13:03;20.20;99.90
3035;DHT22;1527;48.836;9.172;2022-10-16T10:15:34;20.20;99.90
3035;DHT22;1527;48.836;9.172;2022-10-16T10:18:16;20.30;99.90
3035;DHT22;1527;48.836;9.172;2022-10-16T10:21:01;20.30;99.90
3035;DHT22;1527;48.836;9.172;2022-10-16T10:23:34;20.40;99.90
3035;DHT22;1527;48.836;9.172;2022-10-16T10:26:08;20.50;99.90
3035;DHT22;1527;48.836;9.172;2022-10-16T10:28:55;20.50;99.90
3035;DHT22;1527;48.836;9.172;2022-10-16T10:31:36;20.60;99.90
3035;DHT22;1527;48.836;9.172;2022-10-16T10:34:32;20.70;99.90
3035;DHT22;1527;48.836;9.172;2022-10-16T10:37:16;20.80;99.90
3035;DHT22;1527;48.836;9.172;2022-10-16T10:40:00;20.80;99.90
3035;DHT22;1527;48.836;9.172;2022-10-16T10:42:46;21.00;99.90
3035;DHT22;1527;48.836;9.172;2022-10-16T10:45:24;21.10;99.90
3035;DHT22;1527;48.836;9.172;2022-10-16T10:48:07;21.20;99.90
3035;DHT22;1527;48.836;9.172;2022-10-16T10:50:50;21.30;99.90
3035;DHT22;1527;48.836;9.172;2022-10-16T10:53:29;21.40;99.90
3035;DHT22;1527;48.836;9.172;2022-10-16T10:56:15;21.60;99.90
3035;DHT22;1527;48.836;9.172;2022-10-16T10:59:04;21.60;99.90
3035;DHT22;1527;48.836;9.172;2022-10-16T11:01:47;21.70;99.90
3035;DHT22;1527;48.836;9.172;2022-10-16T11:04:32;21.90;99.90
3035;DHT22;1527;48.836;9.172;2022-10-16T11:07:15;22.00;99.90
3035;DHT22;1527;48.836;9.172;2022-10-16T11:09:55;22.10;99.90
3035;DHT22;1527;48.836;9.172;2022-10-16T11:12:29;22.10;99.90
3035;DHT22;1527;48.836;9.172;2022-10-16T11:15:04;22.20;99.90
3035;DHT22;1527;48.836;9.172;2022-10-16T11:17:39;22.30;99.90
3035;DHT22;1527;48.836;9.172;2022-10-16T11:20:17;22.30;99.90
3035;DHT22;1527;48.836;9.172;2022-10-16T11:22:51;22.30;99.90
3035;DHT22;1527;48.836;9.172;2022-10-16T11:25:26;22.50;99.90
3035;DHT22;1527;48.836;9.172;2022-10-16T11:28:00;22.50;99.90
3035;DHT22;1527;48.836;9.172;2022-10-16T11:30:41;22.50;99.90
3035;DHT22;1527;48.836;9.172;2022-10-16T11:33:25;22.60;99.90
3035;DHT22;1527;48.836;9.172;2022-10-16T11:36:04;22.70;99.90
3035;DHT22;1527;48.836;9.172;2022-10-16T11:38:43;22.70;99.90
3035;DHT22;1527;48.836;9.172;2022-10-16T11:41:24;22.80;99.90
3035;DHT22;1527;48.836;9.172;2022-10-16T11:44:27;22.80;99.90
3035;DHT22;1527;48.836;9.172;2022-10-16T11:47:12;22.90;99.90
3035;DHT22;1527;48.836;9.172;2022-10-16T11:50:20;22.90;99.90
3035;DHT22;1527;48.836;9.172;2022-10-16T11:52:57;23.00;99.90
3035;DHT22;1527;48.836;9.172;2022-10-16T11:55:37;23.00;99.90
3035;DHT22;1527;48.836;9.172;2022-10-16T11:58:24;23.00;99.90
3035;DHT22;1527;48.836;9.172;2022-10-16T12:01:00;23.10;99.90
3035;DHT22;1527;48.836;9.172;2022-10-16T12:03:35;23.20;99.90
3035;DHT22;1527;48.836;9.172;2022-10-16T12:06:27;23.30;99.90
3035;DHT22;1527;48.836;9.172;2022-10-16T12:09:00;23.30;99.90
3035;DHT22;1527;48.836;9.172;2022-10-16T12:11:36;23.30;99.90
3035;DHT22;1527;48.836;9.172;2022-10-16T12:17:26;23.30;99.90
3035;DHT22;1527;48.836;9.172;2022-10-16T12:20:00;23.30;99.90
3035;DHT22;1527;48.836;9.172;2022-10-16T12:22:48;23.30;99.90
3035;DHT22;1527;48.836;9.172;2022-10-16T12:25:24;23.30;99.90
3035;DHT22;1527;48.836;9.172;2022-10-16T12:28:00;23.20;99.90
3035;DHT22;1527;48.836;9.172;2022-10-16T12:30:33;23.20;99.90
3035;DHT22;1527;48.836;9.172;2022-10-16T12:33:05;23.30;99.90
3035;DHT22;1527;48.836;9.172;2022-10-16T12:35:43;23.30;99.90
3035;DHT22;1527;48.836;9.172;2022-10-16T12:38:18;23.30;99.90
3035;DHT22;1527;48.836;9.172;2022-10-16T12:40:56;23.30;99.90
3035;DHT22;1527;48.836;9.172;2022-10-16T12:43:37;23.30;99.90
3035;DHT22;1527;48.836;9.172;2022-10-16T12:46:23;23.30;99.90
3035;DHT22;1527;48.836;9.172;2022-10-16T12:49:19;23.30;99.90
3035;DHT22;1527;48.836;9.172;2022-10-16T12:51:52;23.30;99.90
3035;DHT22;1527;48.836;9.172;2022-10-16T12:54:26;23.30;99.90
3035;DHT22;1527;48.836;9.172;2022-10-16T12:57:17;23.30;99.90
3035;DHT22;1527;48.836;9.172;2022-10-16T12:59:58;23.40;99.90
3035;DHT22;1527;48.836;9.172;2022-10-16T13:02:51;23.40;99.90
3035;DHT22;1527;48.836;9.172;2022-10-16T13:08:30;23.50;99.90
3035;DHT22;1527;48.836;9.172;2022-10-16T13:11:15;23.60;99.90
3035;DHT22;1527;48.836;9.172;2022-10-16T13:14:07;23.50;99.90
3035;DHT22;1527;48.836;9.172;2022-10-16T13:16:50;23.60;99.90
3035;DHT22;1527;48.836;9.172;2022-10-16T13:19:29;23.60;99.90
3035;DHT22;1527;48.836;9.172;2022-10-16T13:22:10;23.60;99.90
3035;DHT22;1527;48.836;9.172;2022-10-16T13:24:58;23.60;99.90
3035;DHT22;1527;48.836;9.172;2022-10-16T13:27:46;23.60;99.90
3035;DHT22;1527;48.836;9.172;2022-10-16T13:30:20;23.50;99.90
3035;DHT22;1527;48.836;9.172;2022-10-16T13:33:00;23.40;99.90
3035;DHT22;1527;48.836;9.172;2022-10-16T13:35:33;23.50;99.90
3035;DHT22;1527;48.836;9.172;2022-10-16T13:38:05;23.50;99.90
3035;DHT22;1527;48.836;9.172;2022-10-16T13:40:49;23.50;99.90
3035;DHT22;1527;48.836;9.172;2022-10-16T13:43:23;23.50;99.90
3035;DHT22;1527;48.836;9.172;2022-10-16T13:45:56;23.50;99.90
3035;DHT22;1527;48.836;9.172;2022-10-16T13:48:26;23.50;99.90
3035;DHT22;1527;48.836;9.172;2022-10-16T13:51:00;23.60;99.90
3035;DHT22;1527;48.836;9.172;2022-10-16T13:53:31;23.60;99.90
3035;DHT22;1527;48.836;9.172;2022-10-16T13:56:04;23.60;99.90
3035;DHT22;1527;48.836;9.172;2022-10-16T13:58:35;23.70;99.90
3035;DHT22;1527;48.836;9.172;2022-10-16T14:03:48;23.70;99.90
3035;DHT22;1527;48.836;9.172;2022-10-16T14:06:20;23.60;99.90
3035;DHT22;1527;48.836;9.172;2022-10-16T14:08:57;23.70;99.90
3035;DHT22;1527;48.836;9.172;2022-10-16T14:11:28;23.60;99.90
3035;DHT22;1527;48.836;9.172;2022-10-16T14:14:04;23.50;99.90
3035;DHT22;1527;48.836;9.172;2022-10-16T14:16:33;23.30;99.90
3035;DHT22;1527;48.836;9.172;2022-10-16T14:19:04;23.30;99.90
3035;DHT22;1527;48.836;9.172;2022-10-16T14:21:35;23.30;99.90
3035;DHT22;1527;48.836;9.172;2022-10-16T14:24:11;23.30;99.90
3035;DHT22;1527;48.836;9.172;2022-10-16T14:26:44;23.20;99.90
3035;DHT22;1527;48.836;9.172;2022-10-16T14:29:19;23.20;99.90
3035;DHT22;1527;48.836;9.172;2022-10-16T14:31:57;23.10;99.90
3035;DHT22;1527;48.836;9.172;2022-10-16T14:34:29;23.10;99.90
3035;DHT22;1527;48.836;9.172;2022-10-16T14:37:02;23.10;99.90
3035;DHT22;1527;48.836;9.172;2022-10-16T14:39:37;23.00;99.90
3035;DHT22;1527;48.836;9.172;2022-10-16T14:42:14;23.10;99.90
3035;DHT22;1527;48.836;9.172;2022-10-16T14:44:47;23.10;99.90
3035;DHT22;1527;48.836;9.172;2022-10-16T14:47:23;23.10;99.90
3035;DHT22;1527;48.836;9.172;2022-10-16T14:49:54;23.20;99.90
3035;DHT22;1527;48.836;9.172;2022-10-16T14:52:26;23.20;99.90
3035;DHT22;1527;48.836;9.172;2022-10-16T14:54:55;23.10;99.90
3035;DHT22;1527;48.836;9.172;2022-10-16T14:57:27;23.20;99.90
3035;DHT22;1527;48.836;9.172;2022-10-16T15:00:00;23.20;99.90
3035;DHT22;1527;48.836;9.172;2022-10-16T15:02:31;23.20;99.90
3035;DHT22;1527;48.836;9.172;2022-10-16T15:05:10;23.20;99.90
3035;DHT22;1527;48.836;9.172;2022-10-16T15:07:42;23.20;99.90
3035;DHT22;1527;48.836;9.172;2022-10-16T15:10:11;23.30;99.90
3035;DHT22;1527;48.836;9.172;2022-10-16T15:12:42;23.30;99.90
3035;DHT22;1527;48.836;9.172;2022-10-16T15:15:40;23.30;99.90
3035;DHT22;1527;48.836;9.172;2022-10-16T15:18:11;23.30;99.90
3035;DHT22;1527;48.836;9.172;2022-10-16T15:20:42;23.30;99.90
3035;DHT22;1527;48.836;9.172;2022-10-16T15:23:14;23.30;99.90
3035;DHT22;1527;48.836;9.172;2022-10-16T15:25:46;23.30;99.90
3035;DHT22;1527;48.836;9.172;2022-10-16T15:28:23;23.30;99.90
3035;DHT22;1527;48.836;9.172;2022-10-16T15:31:13;23.30;99.90
3035;DHT22;1527;48.836;9.172;2022-10-16T15:33:44;23.30;99.90
3035;DHT22;1527;48.836;9.172;2022-10-16T15:36:28;23.30;99.90
3035;DHT22;1527;48.836;9.172;2022-10-16T15:38:58;23.30;99.90
3035;DHT22;1527;48.836;9.172;2022-10-16T15:41:28;23.30;99.90
3035;DHT22;1527;48.836;9.172;2022-10-16T15:43:57;23.20;99.90
3035;DHT22;1527;48.836;9.172;2022-10-16T15:46:30;23.20;99.90
3035;DHT22;1527;48.836;9.172;2022-10-16T15:49:01;23.20;99.90
3035;DHT22;1527;48.836;9.172;2022-10-16T15:51:32;23.20;99.90
3035;DHT22;1527;48.836;9.172;2022-10-16T15:54:01;23.20;99.90
3035;DHT22;1527;48.836;9.172;2022-10-16T15:56:30;23.10;99.90
3035;DHT22;1527;48.836;9.172;2022-10-16T15:59:04;23.10;99.90
3035;DHT22;1527;48.836;9.172;2022-10-16T16:01:36;23.00;99.90
3035;DHT22;1527;48.836;9.172;2022-10-16T16:04:06;23.00;99.90
3035;DHT22;1527;48.836;9.172;2022-10-16T16:06:46;23.00;99.90
3035;DHT22;1527;48.836;9.172;2022-10-16T16:09:15;22.90;99.90
3035;DHT22;1527;48.836;9.172;2022-10-16T16:11:45;22.90;99.90
3035;DHT22;1527;48.836;9.172;2022-10-16T16:14:14;22.90;99.90
3035;DHT22;1527;48.836;9.172;2022-10-16T16:16:45;22.80;99.90
3035;DHT22;1527;48.836;9.172;2022-10-16T16:19:15;22.80;99.90
3035;DHT22;1527;48.836;9.172;2022-10-16T16:21:48;22.80;99.90
3035;DHT22;1527;48.836;9.172;2022-10-16T16:24:18;22.80;99.90
3035;DHT22;1527;48.836;9.172;2022-10-16T16:26:47;22.70;99.90
3035;DHT22;1527;48.836;9.172;2022-10-16T16:29:16;22.70;99.90
3035;DHT22;1527;48.836;9.172;2022-10-16T16:31:48;22.70;99.90
3035;DHT22;1527;48.836;9.172;2022-10-16T16:34:17;22.60;99.90
3035;DHT22;1527;48.836;9.172;2022-10-16T16:36:46;22.50;99.90
3035;DHT22;1527;48.836;9.172;2022-10-16T16:39:16;22.50;99.90
3035;DHT22;1527;48.836;9.172;2022-10-16T16:41:49;22.40;99.90
3035;DHT22;1527;48.836;9.172;2022-10-16T16:44:19;22.30;99.90
3035;DHT22;1527;48.836;9.172;2022-10-16T16:46:52;22.20;99.90
3035;DHT22;1527;48.836;9.172;2022-10-16T16:49:22;22.20;99.90
3035;DHT22;1527;48.836;9.172;2022-10-16T16:51:52;22.10;99.90
3035;DHT22;1527;48.836;9.172;2022-10-16T16:54:22;22.00;99.90
3035;DHT22;1527;48.836;9.172;2022-10-16T16:56:52;21.90;99.90
3035;DHT22;1527;48.836;9.172;2022-10-16T16:59:21;21.80;99.90